Ana Sayfa
METAR-TAF:

METAR-TAF

Havaalanları :

Stanton County, Kansas, Amerika Birleşik Devletleri

Enlem: 37-35-07N, Boylam: 101-43-56W, yükseklik: 1013 m

Güncel hava durumu gözlemi

Rapor saat 09:15 UTC de 15 dakika önce yapıldı.
Rüzgar kuzey/kuzeybatıdan 14 kt ve 20 kt'a kadar ani rüzgarlar
Sıcaklık 12°C
Nem 82%
Basınç 1016 hPa
Görüş mesafesi: 16.1 km
5000 ft yükseklikte parçalı bulutlu
11000 ft yükseklikte çok bulutlu
hafif çisenti

METAR: KJHN 250915Z AUTO 33014G20KT 10SM -DZ SCT050 OVC110 12/09 A2999 RMK AO2 LTG DSNT E T01160091 PNO

Saat: 04:30 (09:30 UTC)


TAF: eksik

4.000'den fazla havaalanı için hava durumu gözlemleri ve tahminleri (METAR ve TAF raporları).

Kullanılabilir istasyonlar harita üzerinde sarı ve kırmızı noktalarla gösterilir.

İstasyonun adını görmek için fareyi noktanın üzerinde gezdirin.

Sonrasında hava gözlem ve tahminlerini görmek için tıklayın.

Haritayı değiştirmek için: yaklaştırmak için siyah artı işaretli yeşil düğmeye ve uzaklaştırmak için de eksi işaretli düğmeye hızla tıklayın; bitişik haritalar için yeşil okları kullanın.


METAR-TAF: